createdAt,value
2023-05-05T00:01:08.655Z,10.82
2023-05-05T00:03:37.930Z,9.38
2023-05-05T00:06:05.491Z,10.50
2023-05-05T00:08:32.109Z,9.57
2023-05-05T00:10:58.595Z,9.90
2023-05-05T00:13:25.527Z,11.07
2023-05-05T00:15:53.605Z,12.70
2023-05-05T00:18:21.089Z,11.35
2023-05-05T00:20:47.992Z,11.20
2023-05-05T00:23:17.892Z,11.52
2023-05-05T00:25:44.518Z,11.02
2023-05-05T00:28:11.296Z,11.50
2023-05-05T00:30:39.358Z,9.32
2023-05-05T00:33:06.649Z,11.15
2023-05-05T00:35:33.168Z,10.25
2023-05-05T00:37:59.768Z,10.10
2023-05-05T00:40:26.859Z,11.90
2023-05-05T00:42:53.514Z,10.45
2023-05-05T00:45:20.478Z,11.15
2023-05-05T00:47:57.622Z,11.25
2023-05-05T00:50:25.417Z,11.13
2023-05-05T00:52:53.087Z,12.25
2023-05-05T00:55:19.695Z,11.13
2023-05-05T00:57:46.320Z,10.98
2023-05-05T01:00:13.230Z,12.63
2023-05-05T01:02:40.310Z,12.80
2023-05-05T01:05:07.961Z,11.95
2023-05-05T01:07:43.335Z,13.48
2023-05-05T01:10:22.438Z,12.40
2023-05-05T01:12:55.058Z,12.18
2023-05-05T01:15:21.489Z,14.98
2023-05-05T01:17:52.587Z,16.48
2023-05-05T01:20:31.312Z,13.02
2023-05-05T01:23:00.528Z,14.15
2023-05-05T01:25:45.521Z,16.60
2023-05-05T01:28:30.516Z,15.18
2023-05-05T01:30:56.956Z,16.73
2023-05-05T01:33:26.134Z,17.33
2023-05-05T01:35:55.115Z,16.55
2023-05-05T01:38:23.098Z,16.17
2023-05-05T01:40:51.897Z,17.20
2023-05-05T01:43:20.158Z,15.40
2023-05-05T01:45:47.245Z,15.15
2023-05-05T01:48:16.486Z,17.02
2023-05-05T01:50:43.826Z,16.25
2023-05-05T01:53:10.585Z,14.55
2023-05-05T01:55:37.402Z,14.55
2023-05-05T01:58:04.979Z,15.32
2023-05-05T02:00:32.155Z,14.80
2023-05-05T02:03:01.117Z,14.38
2023-05-05T02:05:28.169Z,15.48
2023-05-05T02:07:56.867Z,13.65
2023-05-05T02:10:23.693Z,15.98
2023-05-05T02:12:50.777Z,17.63
2023-05-05T02:15:17.687Z,15.65
2023-05-05T02:17:45.176Z,17.33
2023-05-05T02:20:12.809Z,17.25
2023-05-05T02:22:39.483Z,16.65
2023-05-05T02:25:06.754Z,17.63
2023-05-05T02:27:34.969Z,18.98
2023-05-05T02:30:13.773Z,18.63
2023-05-05T02:32:45.286Z,17.05
2023-05-05T02:35:17.181Z,19.65
2023-05-05T02:40:10.684Z,16.15
2023-05-05T02:42:39.521Z,15.82
2023-05-05T02:45:10.796Z,22.38
2023-05-05T02:47:38.218Z,18.55
2023-05-05T02:50:06.036Z,19.13
2023-05-05T02:52:33.487Z,19.17
2023-05-05T02:55:00.269Z,17.52
2023-05-05T02:57:47.059Z,20.33
2023-05-05T03:00:39.714Z,18.10
2023-05-05T03:03:14.185Z,18.38
2023-05-05T03:05:53.833Z,20.60
2023-05-05T03:08:33.138Z,21.55
2023-05-05T03:11:03.632Z,21.25
2023-05-05T03:13:31.699Z,22.45
2023-05-05T03:15:59.292Z,22.75
2023-05-05T03:18:27.035Z,24.02
2023-05-05T03:20:53.560Z,24.20
2023-05-05T03:23:21.162Z,21.40
2023-05-05T03:25:48.490Z,22.33
2023-05-05T03:28:15.429Z,20.55
2023-05-05T03:30:42.393Z,19.30
2023-05-05T03:33:10.374Z,19.80
2023-05-05T03:35:36.868Z,19.85
2023-05-05T03:38:03.386Z,22.23
2023-05-05T03:40:42.897Z,19.38
2023-05-05T03:43:09.890Z,21.38
2023-05-05T03:45:36.418Z,22.02
2023-05-05T03:48:03.188Z,23.88
2023-05-05T03:50:29.723Z,25.00
2023-05-05T03:52:56.262Z,26.58
2023-05-05T03:55:22.798Z,25.55
2023-05-05T03:57:49.283Z,25.45
2023-05-05T04:00:16.052Z,23.92
2023-05-05T04:02:43.674Z,27.30
2023-05-05T04:05:10.309Z,28.15
2023-05-05T04:07:36.741Z,27.08
2023-05-05T04:10:03.258Z,28.33
2023-05-05T04:12:29.686Z,27.75
2023-05-05T04:14:56.121Z,26.70
2023-05-05T04:17:22.618Z,25.48
2023-05-05T04:19:49.276Z,24.63
2023-05-05T04:22:15.843Z,23.98
2023-05-05T04:24:42.362Z,26.48
2023-05-05T04:27:08.807Z,25.65
2023-05-05T04:29:35.302Z,24.85
2023-05-05T04:32:01.823Z,23.63
2023-05-05T04:34:28.281Z,22.67
2023-05-05T04:36:54.729Z,23.60
2023-05-05T04:39:21.653Z,20.90
2023-05-05T04:41:48.128Z,22.60
2023-05-05T04:44:14.607Z,22.73
